Time;durP1;ratioP1;P1;durP2;ratioP2;P2;SDS_P1;SDS_P2;PMS_P1;PMS_P2;Temp;Humidity;BMP_temperature;BMP_pressure;BME280_temperature;BME280_humidity;BME280_pressure;Samples;Min_cycle;Max_cycle;Signal;HPM_P1;HPM_P2
2022/05/18 00:00:07;;;;;;;4.35;1.15;;;;;;;12.00;nan;102612.41;5068171;28;20033;-42
2022/05/18 00:02:32;;;;;;;3.33;1.52;;;;;;;11.87;nan;102608.97;5061838;28;20132;-42
2022/05/18 00:04:58;;;;;;;4.35;1.25;;;;;;;11.87;nan;102607.13;5059842;28;20166;-41
2022/05/18 00:07:23;;;;;;;5.57;1.20;;;;;;;11.89;nan;102617.66;5063150;28;20108;-41
2022/05/18 00:09:51;;;;;;;1.60;1.00;;;;;;;11.79;nan;102612.69;5062089;28;20032;-43
2022/05/18 00:12:17;;;;;;;5.65;1.10;;;;;;;11.76;nan;102613.91;5064385;28;20024;-42
2022/05/18 00:14:43;;;;;;;5.30;1.42;;;;;;;11.68;nan;102624.06;5056813;28;20053;-41
2022/05/18 00:17:08;;;;;;;21.98;1.42;;;;;;;11.66;nan;102636.84;5062432;28;20048;-41
2022/05/18 00:19:34;;;;;;;2.65;1.10;;;;;;;11.65;nan;102641.41;5057736;28;20032;-41
2022/05/18 00:22:00;;;;;;;2.83;0.90;;;;;;;11.59;nan;102634.19;5063190;28;20039;-41
2022/05/18 00:24:25;;;;;;;3.88;0.90;;;;;;;11.59;nan;102644.09;5057264;28;20033;-41
2022/05/18 00:26:51;;;;;;;5.13;1.38;;;;;;;11.58;nan;102637.09;5058505;28;20056;-41
2022/05/18 00:29:17;;;;;;;11.68;1.42;;;;;;;11.48;nan;102642.84;5051071;28;20029;-41
2022/05/18 00:31:46;;;;;;;3.78;1.13;;;;;;;11.52;nan;102640.63;5057811;28;20028;-41
2022/05/18 00:34:13;;;;;;;6.85;0.98;;;;;;;11.52;nan;102645.97;5058505;28;20044;-41
2022/05/18 00:36:39;;;;;;;2.15;1.10;;;;;;;11.50;nan;102659.63;5052253;28;20196;-42
2022/05/18 00:39:05;;;;;;;3.10;0.93;;;;;;;11.45;nan;102656.69;5055930;28;20132;-41
2022/05/18 00:41:32;;;;;;;3.22;1.00;;;;;;;11.45;nan;102651.34;5054057;28;20080;-41
2022/05/18 00:43:58;;;;;;;5.57;1.15;;;;;;;11.41;nan;102650.94;5053187;28;20021;-41
2022/05/18 00:46:24;;;;;;;7.75;0.90;;;;;;;11.36;nan;102657.97;5050782;28;20029;-41
2022/05/18 00:48:52;;;;;;;3.03;0.80;;;;;;;11.29;nan;102655.25;5052084;28;20028;-41
2022/05/18 00:51:29;;;;;;;6.00;1.02;;;;;;;11.25;nan;102655.88;5053813;28;20401;-42
2022/05/18 00:54:19;;;;;;;1.67;0.90;;;;;;;11.23;nan;102657.94;5055203;28;20021;-41
2022/05/18 00:56:47;;;;;;;1.42;0.68;;;;;;;11.28;nan;102660.84;5058056;28;20479;-42
2022/05/18 00:59:29;;;;;;;4.43;1.42;;;;;;;11.23;nan;102660.63;5053289;28;20028;-42
2022/05/18 01:01:58;;;;;;;5.10;0.95;;;;;;;11.19;nan;102669.09;5054700;28;20027;-41
2022/05/18 01:04:26;;;;;;;3.60;0.93;;;;;;;11.15;nan;102670.53;5052947;28;20379;-42
2022/05/18 01:07:03;;;;;;;10.68;1.20;;;;;;;11.16;nan;102674.88;5052067;28;20251;-42
2022/05/18 01:09:37;;;;;;;2.28;1.00;;;;;;;11.13;nan;102682.47;5052428;28;20167;-41
2022/05/18 01:12:04;;;;;;;4.85;1.50;;;;;;;11.16;nan;102687.47;5050794;28;20108;-41
2022/05/18 01:14:34;;;;;;;4.65;1.08;;;;;;;11.17;nan;102687.25;5052637;28;20379;-42
2022/05/18 01:17:00;;;;;;;4.75;1.25;;;;;;;11.16;nan;102693.66;5053880;28;20103;-41
2022/05/18 01:19:47;;;;;;;2.70;1.00;;;;;;;11.05;nan;102696.94;5050932;28;20747;-42
2022/05/18 01:22:48;;;;;;;5.82;1.60;;;;;;;11.01;nan;102702.91;5053091;28;20067;-42
2022/05/18 01:25:22;;;;;;;53.60;3.88;;;;;;;11.00;nan;102707.44;5055334;28;20483;-41
2022/05/18 01:27:48;;;;;;;11.50;1.65;;;;;;;10.98;nan;102712.19;5063344;28;20033;-42
2022/05/18 01:30:14;;;;;;;9.20;0.90;;;;;;;10.96;nan;102708.06;5058221;28;20490;-42
2022/05/18 01:32:46;;;;;;;1.45;0.85;;;;;;;10.97;nan;102709.72;5054616;28;20242;-41
2022/05/18 01:35:14;;;;;;;2.67;1.08;;;;;;;10.97;nan;102702.50;5060848;28;20479;-41
2022/05/18 01:37:40;;;;;;;5.85;1.58;;;;;;;10.89;nan;102706.19;5054410;28;20191;-41
2022/05/18 01:40:14;;;;;;;3.63;1.55;;;;;;;10.76;nan;102718.72;5050849;28;21498;-42
2022/05/18 01:42:46;;;;;;;4.20;1.52;;;;;;;10.65;nan;102719.31;5052063;28;20555;-42
2022/05/18 01:45:12;;;;;;;6.18;1.55;;;;;;;10.61;nan;102713.53;5055030;28;20078;-42
2022/05/18 01:47:40;;;;;;;2.20;1.20;;;;;;;10.63;nan;102718.69;5052469;28;20108;-41
2022/05/18 01:50:10;;;;;;;6.32;1.17;;;;;;;10.57;nan;102715.75;5050746;28;20454;-41
2022/05/18 01:52:36;;;;;;;3.72;0.98;;;;;;;10.53;nan;102716.38;5053924;28;20446;-42
2022/05/18 01:55:03;;;;;;;6.13;1.20;;;;;;;10.53;nan;102716.38;5057398;28;20068;-41
2022/05/18 01:57:29;;;;;;;4.18;0.98;;;;;;;10.46;nan;102710.97;5054141;28;20024;-42
2022/05/18 01:59:54;;;;;;;4.68;1.15;;;;;;;10.42;nan;102715.09;5054666;28;20082;-42
2022/05/18 02:02:22;;;;;;;6.25;1.05;;;;;;;10.37;nan;102722.06;5054620;28;20028;-41
2022/05/18 02:04:48;;;;;;;12.20;1.20;;;;;;;10.32;nan;102725.34;5051868;28;20072;-41
2022/05/18 02:07:14;;;;;;;5.05;1.17;;;;;;;10.17;nan;102725.41;5054997;28;20185;-41
2022/05/18 02:09:40;;;;;;;38.13;2.50;;;;;;;10.19;nan;102730.56;5050395;28;20073;-41
2022/05/18 02:12:08;;;;;;;10.23;1.25;;;;;;;10.18;nan;102723.56;5054593;28;20040;-41
2022/05/18 02:14:33;;;;;;;19.30;2.58;;;;;;;10.17;nan;102721.91;5050927;28;20037;-41
2022/05/18 02:16:59;;;;;;;7.15;1.20;;;;;;;10.06;nan;102730.53;5051385;28;20038;-41
2022/05/18 02:19:25;;;;;;;8.27;2.60;;;;;;;9.99;nan;102730.47;5054367;28;20032;-43
2022/05/18 02:21:50;;;;;;;8.23;1.60;;;;;;;10.03;nan;102723.69;5057777;28;20107;-41
2022/05/18 02:24:16;;;;;;;5.45;1.15;;;;;;;10.02;nan;102734.59;5058798;28;20098;-41
2022/05/18 02:26:42;;;;;;;4.40;1.38;;;;;;;9.92;nan;102730.41;5056478;28;20147;-43
2022/05/18 02:29:08;;;;;;;9.07;1.80;;;;;;;9.94;nan;102738.25;5058369;28;20586;-41
2022/05/18 02:31:34;;;;;;;4.45;1.08;;;;;;;9.86;nan;102738.38;5055336;28;20031;-42
2022/05/18 02:34:00;;;;;;;13.27;2.20;;;;;;;9.87;nan;102743.53;5059443;28;20108;-41
2022/05/18 02:36:26;;;;;;;7.20;1.58;;;;;;;9.80;nan;102742.69;5062463;28;20110;-41
2022/05/18 02:38:52;;;;;;;25.05;2.30;;;;;;;9.85;nan;102750.13;5058089;28;20029;-41
2022/05/18 02:41:19;;;;;;;5.88;1.30;;;;;;;9.77;nan;102759.13;5056509;28;20094;-45
2022/05/18 02:43:46;;;;;;;4.88;1.30;;;;;;;9.71;nan;102756.41;5057164;28;20028;-41
2022/05/18 02:46:15;;;;;;;12.77;2.22;;;;;;;9.69;nan;102748.53;5066195;28;20020;-42
2022/05/18 02:48:41;;;;;;;4.95;1.70;;;;;;;9.65;nan;102752.63;5062667;28;20037;-42
2022/05/18 02:51:08;;;;;;;7.03;1.70;;;;;;;9.66;nan;102760.47;5057708;28;20050;-41
2022/05/18 02:53:34;;;;;;;16.48;1.90;;;;;;;9.66;nan;102756.97;5057890;28;20031;-41
2022/05/18 02:56:06;;;;;;;5.32;1.40;;;;;;;9.63;nan;102758.19;5057577;28;20029;-42
2022/05/18 02:58:47;;;;;;;6.00;2.17;;;;;;;9.54;nan;102763.88;5052825;28;20057;-42
2022/05/18 03:01:19;;;;;;;12.27;1.88;;;;;;;9.55;nan;102771.72;5061409;28;20155;-41
2022/05/18 03:03:45;;;;;;;9.30;1.65;;;;;;;9.51;nan;102759.72;5056495;28;20083;-41
2022/05/18 03:06:13;;;;;;;5.57;1.63;;;;;;;9.51;nan;102769.59;5057490;28;20526;-41
2022/05/18 03:08:41;;;;;;;17.23;2.08;;;;;;;9.46;nan;102772.84;5052892;28;20283;-41
2022/05/18 03:11:07;;;;;;;3.72;1.65;;;;;;;9.47;nan;102776.34;5057584;28;20501;-43
2022/05/18 03:13:33;;;;;;;7.97;1.70;;;;;;;9.44;nan;102780.25;5059159;28;20078;-41
2022/05/18 03:15:58;;;;;;;8.80;1.85;;;;;;;9.45;nan;102779.22;5054549;28;20090;-41
2022/05/18 03:18:25;;;;;;;8.02;2.00;;;;;;;9.37;nan;102777.50;5052037;28;20398;-40
2022/05/18 03:23:35;;;;;;;2.93;1.23;;;;;;;9.37;nan;102787.38;5051843;28;20052;-41
2022/05/18 03:26:03;;;;;;;6.30;1.58;;;;;;;9.39;nan;102783.50;5060208;28;20470;-41
2022/05/18 03:28:29;;;;;;;11.40;1.88;;;;;;;9.41;nan;102775.28;5056195;28;20025;-42
2022/05/18 03:30:55;;;;;;;10.00;1.80;;;;;;;9.44;nan;102777.56;5056199;28;20467;-42
2022/05/18 03:33:22;;;;;;;6.22;1.70;;;;;;;9.42;nan;102781.44;5054869;28;20090;-41
2022/05/18 03:35:48;;;;;;;6.97;1.33;;;;;;;9.36;nan;102788.41;5055537;28;20045;-42
2022/05/18 03:38:14;;;;;;;5.15;1.52;;;;;;;9.38;nan;102784.50;5056799;28;20132;-42
2022/05/18 03:40:40;;;;;;;2.97;1.23;;;;;;;9.43;nan;102788.47;5052911;28;20028;-41
2022/05/18 03:43:06;;;;;;;2.50;1.27;;;;;;;9.39;nan;102796.03;5060752;28;20086;-41
2022/05/18 03:45:33;;;;;;;7.20;1.52;;;;;;;9.34;nan;102788.59;5059049;28;20105;-40
2022/05/18 03:47:59;;;;;;;6.95;1.52;;;;;;;9.37;nan;102796.25;5060929;28;20063;-41
2022/05/18 03:50:28;;;;;;;9.52;1.10;;;;;;;9.36;nan;102793.75;5058302;28;20025;-41
2022/05/18 03:52:57;;;;;;;1.98;1.20;;;;;;;9.34;nan;102790.44;5063780;28;20035;-41
2022/05/18 03:55:24;;;;;;;2.95;1.58;;;;;;;9.38;nan;102789.88;5062915;28;20025;-41
2022/05/18 03:57:50;;;;;;;11.90;1.95;;;;;;;9.45;nan;102784.56;5061912;28;20112;-42
2022/05/18 04:00:16;;;;;;;2.63;1.50;;;;;;;9.49;nan;102793.88;5066643;28;20066;-41
2022/05/18 04:02:42;;;;;;;2.75;1.10;;;;;;;9.52;nan;102796.19;5056885;28;20071;-42
2022/05/18 04:05:09;;;;;;;5.78;1.27;;;;;;;9.46;nan;102796.94;5052960;28;20123;-41
2022/05/18 04:07:35;;;;;;;1.92;1.20;;;;;;;9.50;nan;102805.41;5052295;28;20490;-41
2022/05/18 04:10:01;;;;;;;10.65;1.98;;;;;;;9.44;nan;102798.13;5054403;28;20039;-41
2022/05/18 04:12:27;;;;;;;8.40;1.65;;;;;;;9.39;nan;102799.53;5050180;28;20037;-42
2022/05/18 04:14:54;;;;;;;3.47;1.40;;;;;;;9.37;nan;102795.41;5055098;28;20017;-43
2022/05/18 04:17:25;;;;;;;1.75;0.93;;;;;;;9.36;nan;102793.75;5055660;28;20113;-41
2022/05/18 04:19:50;;;;;;;4.43;0.90;;;;;;;9.26;nan;102795.91;5052479;28;20028;-42
2022/05/18 04:22:16;;;;;;;4.45;1.27;;;;;;;9.37;nan;102795.41;5052633;28;20025;-41
2022/05/18 04:24:42;;;;;;;4.50;1.23;;;;;;;9.36;nan;102791.91;5059035;28;20071;-41
2022/05/18 04:27:07;;;;;;;7.88;1.73;;;;;;;9.37;nan;102795.41;5066316;28;20035;-43
2022/05/18 04:29:33;;;;;;;10.95;1.98;;;;;;;9.42;nan;102798.34;5066656;28;20090;-41
2022/05/18 04:31:59;;;;;;;5.75;1.77;;;;;;;9.43;nan;102796.50;5064819;28;20028;-41
2022/05/18 04:34:26;;;;;;;12.40;2.72;;;;;;;9.41;nan;102796.69;5066484;28;20179;-41
2022/05/18 04:36:52;;;;;;;3.58;1.65;;;;;;;9.42;nan;102798.34;5065774;28;20461;-40
2022/05/18 04:39:17;;;;;;;3.35;1.00;;;;;;;9.45;nan;102797.13;5066816;28;20068;-41
2022/05/18 04:41:43;;;;;;;6.70;1.50;;;;;;;9.46;nan;102799.59;5066293;28;20028;-41
2022/05/18 04:44:09;;;;;;;10.82;1.40;;;;;;;9.54;nan;102798.66;5066009;28;20025;-41
2022/05/18 04:46:34;;;;;;;7.40;1.60;;;;;;;9.52;nan;102803.38;5065615;28;20126;-41
2022/05/18 04:49:00;;;;;;;8.23;1.27;;;;;;;9.61;nan;102804.91;5066691;28;20027;-41
2022/05/18 04:51:26;;;;;;;2.20;1.13;;;;;;;9.70;nan;102806.44;5066184;28;21252;-41
2022/05/18 04:53:51;;;;;;;2.67;1.00;;;;;;;9.80;nan;102817.63;5065232;28;20074;-41
2022/05/18 04:56:17;;;;;;;6.53;1.50;;;;;;;9.86;nan;102822.22;5065841;28;20390;-41
2022/05/18 04:58:43;;;;;;;2.10;1.20;;;;;;;9.88;nan;102816.69;5067051;28;20120;-42
2022/05/18 05:01:09;;;;;;;3.72;1.15;;;;;;;9.89;nan;102821.03;5066880;28;20028;-41
2022/05/18 05:03:36;;;;;;;5.63;1.50;;;;;;;9.89;nan;102824.53;5064715;28;20025;-41
2022/05/18 05:06:03;;;;;;;10.82;1.25;;;;;;;10.00;nan;102825.84;5064633;28;20036;-41
2022/05/18 05:08:29;;;;;;;2.20;1.08;;;;;;;10.12;nan;102818.94;5067250;28;20036;-41
2022/05/18 05:10:56;;;;;;;9.25;1.52;;;;;;;10.12;nan;102826.16;5066976;28;20024;-39
2022/05/18 05:13:22;;;;;;;1.80;1.13;;;;;;;10.18;nan;102823.50;5065386;28;20460;-39
2022/05/18 05:15:51;;;;;;;7.45;1.17;;;;;;;10.28;nan;102831.25;5068216;28;20032;-42
2022/05/18 05:18:16;;;;;;;4.90;0.98;;;;;;;10.35;nan;102825.94;5064878;28;20029;-42
2022/05/18 05:20:42;;;;;;;3.40;0.93;;;;;;;10.43;nan;102831.16;5066166;28;20048;-41
2022/05/18 05:23:07;;;;;;;4.85;1.60;;;;;;;10.50;nan;102824.78;5060558;28;20032;-41
2022/05/18 05:25:33;;;;;;;5.88;1.35;;;;;;;10.54;nan;102830.59;5063988;28;21027;-41
2022/05/18 05:27:59;;;;;;;4.22;1.08;;;;;;;10.56;nan;102826.69;5059632;28;20017;-41
2022/05/18 05:30:27;;;;;;;3.42;1.55;;;;;;;10.69;nan;102833.16;5062832;28;20031;-42
2022/05/18 05:32:52;;;;;;;3.25;1.40;;;;;;;10.79;nan;102828.28;5061370;28;20016;-41
2022/05/18 05:35:18;;;;;;;7.95;1.13;;;;;;;10.88;nan;102822.53;5060448;28;20390;-42
2022/05/18 05:37:44;;;;;;;6.03;1.38;;;;;;;11.02;nan;102823.41;5059502;28;20072;-42
2022/05/18 05:40:10;;;;;;;4.38;1.30;;;;;;;11.16;nan;102824.31;5075664;22;20565;-45
2022/05/18 05:42:37;;;;;;;5.35;1.58;;;;;;;11.10;nan;102822.41;5062185;28;20028;-45
2022/05/18 05:45:04;;;;;;;7.05;1.33;;;;;;;11.12;nan;102818.47;5060291;28;20145;-44
2022/05/18 05:47:30;;;;;;;2.95;1.00;;;;;;;11.21;nan;102827.19;5053642;28;20020;-44
2022/05/18 05:49:56;;;;;;;19.35;1.58;;;;;;;11.30;nan;102823.28;5081892;28;21006;-45
2022/05/18 05:52:21;;;;;;;2.10;0.90;;;;;;;11.34;nan;102818.38;5068992;28;20119;-45
2022/05/18 05:54:47;;;;;;;3.05;1.38;;;;;;;11.42;nan;102820.84;5063049;28;20441;-45
2022/05/18 05:57:13;;;;;;;1.75;1.00;;;;;;;11.44;nan;102811.56;5067987;28;20533;-44
2022/05/18 05:59:39;;;;;;;4.03;1.17;;;;;;;11.53;nan;102825.63;5066719;28;20382;-46
2022/05/18 06:02:08;;;;;;;1.67;0.93;;;;;;;11.66;nan;102819.44;5067217;28;20028;-45
2022/05/18 06:04:36;;;;;;;10.88;1.63;;;;;;;11.79;nan;102816.81;5070305;28;20024;-45
2022/05/18 06:07:01;;;;;;;1.88;0.90;;;;;;;11.86;nan;102820.34;5068250;28;20350;-44
2022/05/18 06:09:27;;;;;;;0.85;0.70;;;;;;;11.90;nan;102818.88;5065873;28;20119;-44
2022/05/18 06:11:53;;;;;;;18.10;2.83;;;;;;;12.02;nan;102814.53;5066145;28;20022;-44
2022/05/18 06:14:19;;;;;;;3.78;0.98;;;;;;;12.13;nan;102815.78;5065733;28;20028;-44
2022/05/18 06:16:49;;;;;;;21.85;2.30;;;;;;;12.14;nan;102811.22;5071090;28;20081;-45
2022/05/18 06:19:16;;;;;;;4.10;1.23;;;;;;;12.15;nan;102816.38;5067459;28;20025;-45
2022/05/18 06:21:42;;;;;;;0.90;0.70;;;;;;;12.18;nan;102813.28;5065458;28;20020;-45
2022/05/18 06:24:08;;;;;;;2.67;1.02;;;;;;;12.18;nan;102813.28;5064297;28;20016;-44
2022/05/18 06:26:34;;;;;;;3.47;1.20;;;;;;;12.21;nan;102810.19;5065711;28;20149;-44
2022/05/18 06:28:59;;;;;;;2.70;1.20;;;;;;;12.18;nan;102813.28;5066120;28;20032;-45
2022/05/18 06:31:25;;;;;;;1.92;0.85;;;;;;;12.20;nan;102819.28;5061183;28;20028;-44
2022/05/18 06:33:51;;;;;;;2.33;1.23;;;;;;;12.31;nan;102824.03;5062791;28;20028;-44
2022/05/18 06:36:16;;;;;;;19.45;1.80;;;;;;;12.36;nan;102831.44;5063737;28;20048;-44
2022/05/18 06:38:42;;;;;;;3.60;1.20;;;;;;;12.52;nan;102835.56;5064948;28;20428;-45
2022/05/18 06:41:22;;;;;;;11.55;2.10;;;;;;;12.64;nan;102840.09;5062391;28;20028;-45
2022/05/18 06:43:54;;;;;;;4.13;1.27;;;;;;;12.75;nan;102835.09;5063093;28;20048;-44
2022/05/18 06:46:21;;;;;;;5.55;1.08;;;;;;;12.78;nan;102832.00;5064934;28;20028;-45
2022/05/18 06:48:48;;;;;;;2.78;0.98;;;;;;;12.82;nan;102836.72;5067748;28;20033;-45
2022/05/18 06:51:19;;;;;;;3.83;1.05;;;;;;;12.91;nan;102840.81;5064640;28;20024;-44
2022/05/18 06:53:45;;;;;;;0.95;0.88;;;;;;;12.98;nan;102847.03;5057677;28;20028;-45
2022/05/18 06:56:11;;;;;;;16.48;2.80;;;;;;;13.10;nan;102839.09;5060298;28;20040;-47
2022/05/18 06:58:37;;;;;;;3.10;1.17;;;;;;;13.13;nan;102851.31;5064413;28;20020;-45
2022/05/18 07:01:06;;;;;;;1.95;0.95;;;;;;;13.25;nan;102846.94;5056892;28;20028;-46
2022/05/18 07:03:31;;;;;;;1.77;1.05;;;;;;;13.30;nan;102847.97;5060574;28;20033;-45
2022/05/18 07:05:57;;;;;;;4.40;0.90;;;;;;;13.42;nan;102837.31;5061594;28;20028;-45
2022/05/18 07:08:23;;;;;;;3.20;0.70;;;;;;;13.59;nan;102843.00;5064322;28;20032;-45
2022/05/18 07:10:49;;;;;;;3.53;1.10;;;;;;;13.68;nan;102836.34;5065688;28;20063;-46
2022/05/18 07:13:17;;;;;;;2.22;1.00;;;;;;;13.78;nan;102841.22;5059494;28;20545;-46
2022/05/18 07:15:44;;;;;;;1.73;0.90;;;;;;;13.89;nan;102846.75;5063162;28;20847;-45
2022/05/18 07:18:10;;;;;;;8.75;1.23;;;;;;;13.92;nan;102845.47;5060354;28;20071;-47
2022/05/18 07:20:35;;;;;;;2.75;1.08;;;;;;;13.97;nan;102845.63;5059407;28;20028;-45
2022/05/18 07:23:01;;;;;;;20.55;2.13;;;;;;;14.04;nan;102835.63;5064146;28;20029;-45
2022/05/18 07:25:27;;;;;;;5.95;1.55;;;;;;;14.13;nan;102845.09;5064509;28;20596;-45
2022/05/18 07:27:53;;;;;;;2.45;1.33;;;;;;;14.10;nan;102839.31;5065119;28;20033;-45
2022/05/18 07:30:19;;;;;;;5.13;1.70;;;;;;;14.24;nan;102842.72;5072068;28;20031;-45
2022/05/18 07:32:44;;;;;;;3.55;1.05;;;;;;;14.38;nan;102837.00;5068954;28;20033;-47
2022/05/18 07:35:10;;;;;;;4.00;1.08;;;;;;;14.46;nan;102844.81;5061470;28;20064;-45
2022/05/18 07:37:36;;;;;;;16.60;2.25;;;;;;;14.57;nan;102845.97;5070764;28;20040;-46
2022/05/18 07:40:03;;;;;;;5.35;1.10;;;;;;;14.69;nan;102844.16;5066303;28;20033;-45
2022/05/18 07:42:28;;;;;;;3.53;1.30;;;;;;;14.75;nan;102845.97;5058424;28;20457;-45
2022/05/18 07:44:54;;;;;;;11.57;2.22;;;;;;;14.78;nan;102855.47;5065878;28;20048;-45
2022/05/18 07:47:27;;;;;;;5.13;0.93;;;;;;;14.84;nan;102846.47;5068088;28;20033;-45
2022/05/18 07:49:53;;;;;;;1.70;1.10;;;;;;;14.97;nan;102840.09;5066144;28;20150;-45
2022/05/18 07:52:18;;;;;;;3.03;1.20;;;;;;;15.03;nan;102847.28;5066702;28;20028;-46
2022/05/18 07:54:47;;;;;;;31.55;3.70;;;;;;;15.17;nan;102834.44;5061430;28;20021;-47
2022/05/18 07:57:12;;;;;;;2.92;1.10;;;;;;;15.34;nan;102836.28;5064154;28;20024;-45
2022/05/18 07:59:38;;;;;;;3.13;1.00;;;;;;;15.53;nan;102844.34;5068769;28;20042;-45
2022/05/18 08:02:04;;;;;;;5.32;1.35;;;;;;;15.63;nan;102841.94;5068120;28;20020;-46
2022/05/18 08:04:29;;;;;;;8.32;1.80;;;;;;;15.76;nan;102833.63;5066523;28;20044;-45
2022/05/18 08:06:55;;;;;;;7.05;1.25;;;;;;;15.83;nan;102838.94;5071233;28;20104;-45
2022/05/18 08:09:22;;;;;;;4.90;1.60;;;;;;;15.84;nan;102824.34;5068524;28;20126;-46
2022/05/18 08:15:18;;;;;;;4.60;1.35;;;;;;;16.01;nan;102833.44;5069969;28;20038;-45
2022/05/18 08:17:19;;;;;;;3.92;0.90;;;;;;;15.95;nan;102829.75;5062447;28;20037;-45
2022/05/18 08:19:46;;;;;;;3.85;1.30;;;;;;;15.95;nan;102831.66;5066392;28;20152;-46
2022/05/18 08:22:12;;;;;;;8.18;1.42;;;;;;;15.91;nan;102836.69;5069151;28;20031;-46
2022/05/18 08:24:37;;;;;;;7.68;1.33;;;;;;;15.96;nan;102838.69;5066669;28;20450;-45
2022/05/18 08:27:12;;;;;;;2.03;0.88;;;;;;;16.13;nan;102841.53;5060699;28;20031;-45
2022/05/18 08:29:37;;;;;;;3.08;1.10;;;;;;;16.23;nan;102833.66;5067755;28;20051;-45
2022/05/18 08:32:03;;;;;;;4.53;0.93;;;;;;;16.28;nan;102831.06;5067373;28;20474;-45
2022/05/18 08:34:29;;;;;;;2.35;1.30;;;;;;;16.35;nan;102825.56;5065137;28;20020;-45
2022/05/18 08:36:54;;;;;;;3.92;1.08;;;;;;;16.43;nan;102828.72;5061928;28;20027;-46
2022/05/18 08:39:20;;;;;;;3.75;1.13;;;;;;;16.53;nan;102823.56;5067931;28;20065;-45
2022/05/18 08:41:47;;;;;;;4.53;1.05;;;;;;;16.59;nan;102822.59;5071765;28;20028;-46
2022/05/18 08:44:28;;;;;;;4.65;1.02;;;;;;;16.64;nan;102824.56;5064588;28;20071;-48
2022/05/18 08:47:42;;;;;;;7.18;1.20;;;;;;;16.77;nan;102813.53;5067003;28;20027;-48
2022/05/18 08:50:14;;;;;;;4.60;1.58;;;;;;;17.09;nan;102815.78;5050249;28;20041;-45
2022/05/18 08:53:01;;;;;;;6.43;1.30;;;;;;;17.24;nan;102809.84;5061795;28;20039;-45
2022/05/18 08:55:44;;;;;;;8.20;1.75;;;;;;;17.27;nan;102809.34;5063471;28;20234;-47
2022/05/18 08:58:44;;;;;;;2.95;1.00;;;;;;;17.35;nan;102804.34;5061735;28;20044;-45
2022/05/18 09:01:18;;;;;;;5.15;1.70;;;;;;;17.60;nan;102809.41;5068047;28;20036;-45
2022/05/18 09:03:48;;;;;;;9.63;1.85;;;;;;;17.74;nan;102802.59;5066606;28;20256;-47
2022/05/18 09:06:37;;;;;;;11.63;1.65;;;;;;;17.85;nan;102802.78;5071743;28;20021;-46
2022/05/18 09:11:48;;;;;;;2.83;1.00;;;;;;;17.84;nan;102796.53;5062756;28;20039;-46
2022/05/18 09:14:17;;;;;;;24.60;2.22;;;;;;;17.72;nan;102795.78;5061056;28;20028;-45
2022/05/18 09:17:04;;;;;;;2.88;1.05;;;;;;;17.71;nan;102786.84;5060573;28;20031;-45
2022/05/18 09:19:29;;;;;;;0.85;0.73;;;;;;;17.73;nan;102778.44;5064712;28;20197;-45
2022/05/18 09:22:12;;;;;;;2.80;0.95;;;;;;;17.95;nan;102781.22;5069621;28;20031;-46
2022/05/18 09:25:17;;;;;;;2.80;1.20;;;;;;;17.99;nan;102782.41;5063347;28;20055;-46
2022/05/18 09:27:43;;;;;;;2.88;0.90;;;;;;;18.10;nan;102773.31;5066772;28;20276;-46
2022/05/18 09:30:14;;;;;;;2.95;1.52;;;;;;;18.22;nan;102774.06;5061167;28;20039;-45
2022/05/18 09:33:27;;;;;;;4.30;1.30;;;;;;;18.24;nan;102769.19;5072793;28;20143;-45
2022/05/18 09:36:04;;;;;;;7.00;1.00;;;;;;;18.26;nan;102777.91;5025624;28;20032;-45
2022/05/18 09:38:51;;;;;;;1.73;1.10;;;;;;;18.16;nan;102777.78;5071062;28;20044;-46
2022/05/18 09:41:20;;;;;;;2.67;1.00;;;;;;;18.26;nan;102775.19;5062521;28;20020;-46
2022/05/18 09:43:52;;;;;;;3.38;1.00;;;;;;;18.48;nan;102769.78;5067531;28;20027;-46
2022/05/18 09:46:22;;;;;;;3.33;1.90;;;;;;;18.60;nan;102764.22;5061958;28;20082;-47
2022/05/18 09:48:57;;;;;;;3.08;1.00;;;;;;;18.79;nan;102771.00;5063778;28;20042;-47
2022/05/18 09:51:23;;;;;;;6.18;1.10;;;;;;;19.00;nan;102772.03;5063277;28;20027;-45
2022/05/18 09:53:50;;;;;;;6.55;1.40;;;;;;;19.00;nan;102762.00;5064310;28;20036;-46
2022/05/18 09:56:21;;;;;;;5.75;0.90;;;;;;;19.04;nan;102756.06;5064163;28;20025;-45
2022/05/18 09:58:49;;;;;;;1.27;0.90;;;;;;;19.23;nan;102758.16;5061999;28;20028;-46
2022/05/18 10:09:41;;;;;;;3.42;1.00;;;;;;;19.79;nan;102755.94;5063334;28;20086;-46
2022/05/18 10:12:32;;;;;;;4.55;1.05;;;;;;;19.81;nan;102751.06;5058751;28;20034;-46
2022/05/18 10:15:04;;;;;;;13.45;1.77;;;;;;;19.71;nan;102755.59;5063151;28;20024;-45
2022/05/18 10:17:34;;;;;;;8.75;1.58;;;;;;;19.70;nan;102749.34;5067689;28;20115;-46
2022/05/18 10:20:06;;;;;;;2.28;1.10;;;;;;;19.67;nan;102747.13;5061752;28;20489;-45
2022/05/18 10:22:38;;;;;;;1.85;1.30;;;;;;;19.94;nan;102748.97;5062457;28;20033;-46
2022/05/18 10:25:14;;;;;;;3.58;1.27;;;;;;;20.11;nan;102747.72;5060476;28;20024;-46
2022/05/18 10:27:44;;;;;;;4.72;1.10;;;;;;;20.11;nan;102738.75;5060358;28;20028;-47
2022/05/18 10:30:28;;;;;;;2.72;1.15;;;;;;;20.25;nan;102739.06;5059014;28;20390;-46
2022/05/18 10:32:56;;;;;;;3.55;1.08;;;;;;;20.27;nan;102736.88;5062076;28;20040;-45
2022/05/18 10:35:51;;;;;;;8.32;1.77;;;;;;;20.31;nan;102735.28;5061668;28;20027;-46
2022/05/18 10:38:22;;;;;;;;;;;;;;;20.45;nan;102741.91;5058712;28;20478;-45
2022/05/18 10:40:49;;;;;;;2.40;0.90;;;;;;;20.69;nan;102740.38;5061189;28;19916;-45
2022/05/18 10:43:55;;;;;;;1.80;1.27;;;;;;;20.72;nan;102733.56;5059278;28;20024;-44
2022/05/18 10:46:40;;;;;;;3.30;1.33;;;;;;;20.85;nan;102732.25;5051823;28;20504;-45
2022/05/18 10:49:19;;;;;;;3.63;1.52;;;;;;;20.87;nan;102724.63;5059337;28;20397;-45
2022/05/18 10:51:45;;;;;;;3.05;1.10;;;;;;;20.98;nan;102720.81;5060642;28;20107;-45
2022/05/18 10:54:16;;;;;;;2.60;1.20;;;;;;;21.04;nan;102717.81;5061976;28;20017;-45
2022/05/18 10:56:42;;;;;;;3.88;1.60;;;;;;;21.15;nan;102721.38;5060879;28;20738;-45
2022/05/18 10:59:32;;;;;;;3.40;1.20;;;;;;;21.18;nan;102720.00;5069189;28;20028;-44
2022/05/18 11:02:15;;;;;;;3.90;1.33;;;;;;;21.20;nan;102720.56;5073428;28;20020;-45
2022/05/18 11:04:53;;;;;;;6.10;1.30;;;;;;;21.15;nan;102712.38;5061551;28;20032;-45
2022/05/18 11:07:22;;;;;;;1.75;0.93;;;;;;;21.18;nan;102709.91;5064923;28;20136;-45
2022/05/18 11:09:47;;;;;;;1.98;1.05;;;;;;;21.26;nan;102705.88;5067873;28;20433;-45
2022/05/18 11:12:40;;;;;;;5.25;1.17;;;;;;;21.18;nan;102709.91;5065494;28;20053;-45
2022/05/18 11:15:12;;;;;;;3.38;1.40;;;;;;;21.32;nan;102705.59;5066019;28;20032;-45
2022/05/18 11:18:19;;;;;;;2.78;1.13;;;;;;;21.44;nan;102690.88;5062798;28;20036;-46
2022/05/18 11:21:06;;;;;;;4.05;1.80;;;;;;;21.53;nan;102697.38;5068619;28;20039;-46
2022/05/18 11:23:31;;;;;;;10.38;1.83;;;;;;;21.79;nan;102698.19;5070405;28;20035;-47
2022/05/18 11:26:34;;;;;;;3.95;1.45;;;;;;;21.76;nan;102696.81;5064542;28;20036;-45
2022/05/18 11:29:21;;;;;;;3.75;1.35;;;;;;;21.94;nan;102690.78;5071250;28;20449;-44
2022/05/18 11:32:19;;;;;;;6.53;1.45;;;;;;;22.00;nan;102677.91;5064938;28;20119;-46
2022/05/18 11:35:06;;;;;;;2.88;1.77;;;;;;;22.10;nan;102669.75;5056287;28;20675;-45
2022/05/18 11:37:52;;;;;;;11.80;1.92;;;;;;;22.18;nan;102668.31;5066729;28;20045;-45
2022/05/18 11:40:32;;;;;;;3.08;1.13;;;;;;;22.42;nan;102680.22;5064332;28;20020;-45
2022/05/18 11:43:32;;;;;;;5.50;1.10;;;;;;;22.43;nan;102670.91;5066722;28;20036;-45
2022/05/18 11:46:10;;;;;;;1.95;1.27;;;;;;;22.55;nan;102665.94;5069249;28;20557;-45
2022/05/18 11:48:45;;;;;;;2.72;1.20;;;;;;;22.65;nan;102670.53;5070569;28;20036;-45
2022/05/18 11:51:33;;;;;;;2.63;1.17;;;;;;;22.65;nan;102667.81;5090645;22;20188;-45
2022/05/18 11:54:35;;;;;;;3.10;1.35;;;;;;;22.81;nan;102663.06;5077970;28;20110;-45
2022/05/18 11:57:31;;;;;;;1.67;1.30;;;;;;;22.96;nan;102651.22;5087534;28;20050;-45
2022/05/18 12:00:07;;;;;;;;;;;;;;;22.98;nan;102652.56;5086618;28;20385;-46
2022/05/18 12:02:51;;;;;;;4.07;1.25;;;;;;;22.97;nan;102650.91;5064661;28;19920;-46
2022/05/18 12:05:48;;;;;;;7.28;1.67;;;;;;;22.90;nan;102653.16;5066560;28;20051;-45
2022/05/18 12:08:32;;;;;;;2.60;1.17;;;;;;;23.06;nan;102649.22;5069049;28;20028;-46
2022/05/18 12:11:09;;;;;;;3.23;1.27;;;;;;;23.29;nan;102635.88;5065720;28;20021;-45
2022/05/18 12:13:59;;;;;;;2.83;1.50;;;;;;;23.33;nan;102636.94;5063498;28;20032;-45
2022/05/18 12:16:48;;;;;;;3.95;1.17;;;;;;;23.43;nan;102639.56;5063842;28;20024;-45